Time,TemperatureF,DewpointF,PressureIn,WindDirection,WindDirectionDegrees,WindSpeedMPH,WindSpeedGustMPH,Humidity,HourlyPrecipIn,Conditions,Clouds,dailyrainin,SoftwareType,DateUTC
2013-03-08 00:02:00,36.0,20.1,28.29,East,99,4.9,4.9,52,0.00,,---,0.00,VWS V14.01,2013-03-08 08:02:00,
2013-03-08 00:08:00,36.0,20.5,28.29,East,85,0.0,3.6,53,0.00,,---,0.00,VWS V14.01,2013-03-08 08:08:00,
2013-03-08 00:13:00,36.0,20.5,28.29,East,87,0.0,0.0,53,0.00,,---,0.00,VWS V14.01,2013-03-08 08:13:00,
2013-03-08 00:18:00,35.6,21.0,28.29,North,357,2.7,3.1,55,0.00,,---,0.00,VWS V14.01,2013-03-08 08:18:00,
2013-03-08 00:23:00,35.6,21.0,28.29,North,357,0.0,2.7,55,0.00,,---,0.00,VWS V14.01,2013-03-08 08:23:00,
2013-03-08 00:29:00,34.9,22.0,28.29,North,357,0.0,0.0,59,0.00,,---,0.00,VWS V14.01,2013-03-08 08:29:00,
2013-03-08 00:34:00,34.9,22.0,28.29,North,357,0.0,0.0,59,0.00,,---,0.00,VWS V14.01,2013-03-08 08:34:00,
2013-03-08 00:39:00,34.9,22.8,28.29,North,357,2.2,2.7,61,0.00,,---,0.00,VWS V14.01,2013-03-08 08:39:00,
2013-03-08 00:44:00,34.5,22.5,28.29,SSW,202,2.7,4.0,61,0.00,,---,0.00,VWS V14.01,2013-03-08 08:44:00,
2013-03-08 00:50:00,34.5,22.5,28.29,South,187,2.7,2.7,61,0.00,,---,0.00,VWS V14.01,2013-03-08 08:50:00,
2013-03-08 00:55:00,34.2,22.1,28.29,SSE,158,2.7,2.7,61,0.00,,---,0.00,VWS V14.01,2013-03-08 08:55:00,
2013-03-08 01:00:00,34.2,22.1,28.29,SSE,158,2.7,2.7,61,0.00,,---,0.00,VWS V14.01,2013-03-08 09:00:00,
2013-03-08 01:05:00,34.2,22.1,28.29,SSE,158,0.0,0.0,61,0.00,,---,0.00,VWS V14.01,2013-03-08 09:05:00,
2013-03-08 01:11:00,34.5,23.2,28.29,SSE,158,0.0,0.0,63,0.00,,---,0.00,VWS V14.01,2013-03-08 09:11:00,
2013-03-08 01:16:00,34.5,23.2,28.29,SW,221,3.1,3.1,63,0.00,,---,0.00,VWS V14.01,2013-03-08 09:16:00,
2013-03-08 01:21:00,34.5,23.2,28.29,SW,221,2.2,2.2,63,0.00,,---,0.00,VWS V14.01,2013-03-08 09:21:00,
2013-03-08 01:26:00,34.5,23.2,28.29,SW,221,2.2,2.2,63,0.00,,---,0.00,VWS V14.01,2013-03-08 09:26:00,
2013-03-08 01:32:00,34.5,23.2,28.29,SW,221,0.0,0.0,63,0.00,,---,0.00,VWS V14.01,2013-03-08 09:32:00,
2013-03-08 01:37:00,34.3,23.1,28.29,SW,221,0.0,0.0,63,0.00,,---,0.00,VWS V14.01,2013-03-08 09:37:00,
2013-03-08 01:42:00,34.2,22.9,28.29,SW,221,0.0,0.0,63,0.00,,---,0.00,VWS V14.01,2013-03-08 09:42:00,
2013-03-08 01:47:00,34.7,23.8,28.29,SW,221,0.0,0.0,64,0.00,,---,0.00,VWS V14.01,2013-03-08 09:47:00,
2013-03-08 01:53:00,34.7,23.8,28.29,SW,221,0.0,0.0,64,0.00,,---,0.00,VWS V14.01,2013-03-08 09:53:00,
2013-03-08 01:58:00,34.7,23.8,28.29,SW,221,0.0,0.0,64,0.00,,---,0.00,VWS V14.01,2013-03-08 09:58:00,
2013-03-08 02:03:00,34.2,23.3,28.29,SW,221,0.0,0.0,64,0.00,,---,0.00,VWS V14.01,2013-03-08 10:03:00,
2013-03-08 02:08:00,34.0,23.1,28.29,SW,221,0.0,0.0,64,0.00,,---,0.00,VWS V14.01,2013-03-08 10:08:00,
2013-03-08 02:14:00,34.0,23.1,28.29,SW,221,0.0,0.0,64,0.00,,---,0.00,VWS V14.01,2013-03-08 10:14:00,
2013-03-08 02:19:00,34.0,23.1,28.29,SW,221,0.0,0.0,64,0.00,,---,0.00,VWS V14.01,2013-03-08 10:19:00,
2013-03-08 02:24:00,34.0,23.1,28.29,SW,221,0.0,0.0,64,0.00,,---,0.00,VWS V14.01,2013-03-08 10:24:00,
2013-03-08 02:29:00,34.7,24.1,28.29,SW,221,0.0,0.0,65,0.00,,---,0.00,VWS V14.01,2013-03-08 10:29:00,
2013-03-08 02:35:00,34.9,24.7,28.29,SSW,205,0.0,0.0,66,0.00,,---,0.00,VWS V14.01,2013-03-08 10:35:00,
2013-03-08 02:40:00,34.9,24.3,28.29,SSW,208,0.0,0.0,65,0.00,,---,0.00,VWS V14.01,2013-03-08 10:40:00,
2013-03-08 02:45:00,34.7,24.1,28.29,SW,217,0.0,0.0,65,0.00,,---,0.00,VWS V14.01,2013-03-08 10:45:00,
2013-03-08 02:50:00,34.2,23.6,28.26,SW,217,0.0,0.0,65,0.00,,---,0.00,VWS V14.01,2013-03-08 10:50:00,
2013-03-08 02:56:00,34.3,23.8,28.26,SW,217,0.0,0.0,65,0.00,,---,0.00,VWS V14.01,2013-03-08 10:56:00,
2013-03-08 03:01:00,34.5,24.7,28.29,SW,217,0.0,0.0,67,0.00,,---,0.00,VWS V14.01,2013-03-08 11:01:00,
2013-03-08 03:06:00,34.5,24.7,28.29,SW,217,0.0,0.0,67,0.00,,---,0.00,VWS V14.01,2013-03-08 11:06:00,
2013-03-08 03:11:00,34.0,23.8,28.26,SW,217,0.0,0.0,66,0.00,,---,0.00,VWS V14.01,2013-03-08 11:11:00,
2013-03-08 03:17:00,33.6,23.5,28.26,SW,217,0.0,0.0,66,0.00,,---,0.00,VWS V14.01,2013-03-08 11:17:00,
2013-03-08 03:22:00,33.3,23.1,28.26,SW,217,0.0,0.0,66,0.00,,---,0.00,VWS V14.01,2013-03-08 11:22:00,
2013-03-08 03:27:00,33.8,24.0,28.26,ENE,63,0.0,0.0,67,0.00,,---,0.00,VWS V14.01,2013-03-08 11:27:00,
2013-03-08 03:32:00,34.0,24.2,28.26,NE,54,0.0,0.0,67,0.00,,---,0.00,VWS V14.01,2013-03-08 11:32:00,
2013-03-08 03:38:00,34.0,24.2,28.26,ENE,76,0.0,0.0,67,0.00,,---,0.00,VWS V14.01,2013-03-08 11:38:00,
2013-03-08 03:43:00,34.2,24.4,28.26,East,90,0.0,0.0,67,0.00,,---,0.00,VWS V14.01,2013-03-08 11:43:00,
2013-03-08 03:48:00,34.3,24.9,28.26,East,90,0.0,0.0,68,0.00,,---,0.00,VWS V14.01,2013-03-08 11:48:00,
2013-03-08 03:53:00,34.3,24.9,28.26,ENE,65,0.0,0.0,68,0.00,,---,0.00,VWS V14.01,2013-03-08 11:53:00,
2013-03-08 03:59:00,34.3,24.9,28.26,NE,48,3.6,3.6,68,0.00,,---,0.00,VWS V14.01,2013-03-08 11:59:00,
2013-03-08 04:04:00,34.5,25.4,28.26,NE,36,0.0,3.6,69,0.00,,---,0.00,VWS V14.01,2013-03-08 12:04:00,
2013-03-08 04:09:00,34.5,25.4,28.26,NNE,14,0.0,0.0,69,0.00,,---,0.00,VWS V14.01,2013-03-08 12:09:00,
2013-03-08 04:14:00,34.5,25.4,28.26,ENE,63,0.0,0.0,69,0.00,,---,0.00,VWS V14.01,2013-03-08 12:14:00,
2013-03-08 04:20:00,34.5,25.4,28.26,ENE,63,0.0,0.0,69,0.00,,---,0.00,VWS V14.01,2013-03-08 12:20:00,
2013-03-08 04:25:00,34.3,25.2,28.26,ENE,63,0.0,0.0,69,0.00,,---,0.00,VWS V14.01,2013-03-08 12:25:00,
2013-03-08 04:30:00,34.2,25.1,28.26,ENE,63,0.0,0.0,69,0.00,,---,0.00,VWS V14.01,2013-03-08 12:30:00,
2013-03-08 04:35:00,34.0,24.9,28.26,ENE,63,0.0,0.0,69,0.00,,---,0.00,VWS V14.01,2013-03-08 12:35:00,
2013-03-08 04:41:00,34.0,24.9,28.26,SE,145,0.0,0.0,69,0.00,,---,0.00,VWS V14.01,2013-03-08 12:41:00,
2013-03-08 04:46:00,34.3,25.6,28.26,South,176,4.5,4.5,70,0.00,,---,0.00,VWS V14.01,2013-03-08 12:46:00,
2013-03-08 04:51:00,34.5,25.8,28.26,SE,129,0.0,0.0,70,0.00,,---,0.00,VWS V14.01,2013-03-08 12:51:00,
2013-03-08 04:56:00,34.5,25.4,28.26,East,91,2.7,2.7,69,0.00,,---,0.00,VWS V14.01,2013-03-08 12:56:00,
2013-03-08 05:02:00,34.5,25.4,28.26,ESE,119,0.0,2.2,69,0.00,,---,0.00,VWS V14.01,2013-03-08 13:02:00,
2013-03-08 05:07:00,34.5,25.4,28.26,South,172,3.1,3.1,69,0.00,,---,0.00,VWS V14.01,2013-03-08 13:07:00,
2013-03-08 05:12:00,34.3,25.2,28.29,SSE,156,4.0,4.0,69,0.00,,---,0.00,VWS V14.01,2013-03-08 13:12:00,
2013-03-08 05:18:00,34.3,25.2,28.29,ESE,113,2.2,2.7,69,0.00,,---,0.00,VWS V14.01,2013-03-08 13:18:00,
2013-03-08 05:23:00,34.5,25.4,28.29,ESE,116,0.0,3.1,69,0.00,,---,0.00,VWS V14.01,2013-03-08 13:23:00,
2013-03-08 05:28:00,34.5,25.4,28.29,ESE,116,0.0,0.0,69,0.00,,---,0.00,VWS V14.01,2013-03-08 13:28:00,
2013-03-08 05:33:00,34.0,24.5,28.29,ESE,116,0.0,0.0,68,0.00,,---,0.00,VWS V14.01,2013-03-08 13:33:00,
2013-03-08 05:39:00,33.8,24.4,28.29,SSW,202,2.2,3.6,68,0.00,,---,0.00,VWS V14.01,2013-03-08 13:39:00,
2013-03-08 05:44:00,33.8,24.4,28.29,SSW,202,2.2,2.2,68,0.00,,---,0.00,VWS V14.01,2013-03-08 13:44:00,
2013-03-08 05:49:00,33.6,24.2,28.29,SSW,202,0.0,2.2,68,0.00,,---,0.00,VWS V14.01,2013-03-08 13:49:00,
2013-03-08 05:54:00,33.6,24.2,28.29,SSW,202,0.0,0.0,68,0.00,,---,0.00,VWS V14.01,2013-03-08 13:54:00,
2013-03-08 06:00:00,33.4,24.0,28.29,SSW,202,0.0,0.0,68,0.00,,---,0.00,VWS V14.01,2013-03-08 14:00:00,
2013-03-08 06:05:00,33.6,24.2,28.29,SSW,202,0.0,0.0,68,0.00,,---,0.00,VWS V14.01,2013-03-08 14:05:00,
2013-03-08 06:10:00,34.0,24.5,28.29,SSW,202,0.0,0.0,68,0.00,,---,0.00,VWS V14.01,2013-03-08 14:10:00,
2013-03-08 06:16:00,33.8,24.0,28.29,South,190,0.0,0.0,67,0.00,,---,0.00,VWS V14.01,2013-03-08 14:16:00,
2013-03-08 06:21:00,33.8,24.0,28.29,SSW,210,0.0,0.0,67,0.00,,---,0.00,VWS V14.01,2013-03-08 14:21:00,
2013-03-08 06:26:00,34.0,24.5,28.29,SSW,204,0.0,0.0,68,0.00,,---,0.00,VWS V14.01,2013-03-08 14:26:00,
2013-03-08 06:31:00,34.0,24.5,28.29,SSW,204,0.0,0.0,68,0.00,,---,0.00,VWS V14.01,2013-03-08 14:31:00,
2013-03-08 06:37:00,34.0,24.5,28.29,SSW,204,0.0,0.0,68,0.00,,---,0.00,VWS V14.01,2013-03-08 14:37:00,
2013-03-08 06:42:00,34.0,24.5,28.29,SSW,204,0.0,0.0,68,0.00,,---,0.00,VWS V14.01,2013-03-08 14:42:00,
2013-03-08 06:47:00,34.2,24.7,28.29,SSW,204,0.0,0.0,68,0.00,,---,0.00,VWS V14.01,2013-03-08 14:47:00,
2013-03-08 06:53:00,34.2,24.7,28.29,SSW,204,0.0,0.0,68,0.00,,---,0.00,VWS V14.01,2013-03-08 14:53:00,
2013-03-08 06:58:00,34.3,24.9,28.29,SSW,194,0.0,0.0,68,0.00,,---,0.00,VWS V14.01,2013-03-08 14:58:00,
2013-03-08 07:03:00,34.3,24.9,28.29,East,94,0.0,0.0,68,0.00,,---,0.00,VWS V14.01,2013-03-08 15:03:00,
2013-03-08 07:08:00,34.3,24.9,28.29,East,94,0.0,0.0,68,0.00,,---,0.00,VWS V14.01,2013-03-08 15:08:00,
2013-03-08 07:13:00,34.3,24.9,28.29,East,94,0.0,0.0,68,0.00,,---,0.00,VWS V14.01,2013-03-08 15:13:00,
2013-03-08 07:19:00,34.3,24.9,28.29,East,94,0.0,0.0,68,0.00,,---,0.00,VWS V14.01,2013-03-08 15:19:00,
2013-03-08 07:24:00,34.3,24.9,28.29,East,94,0.0,0.0,68,0.00,,---,0.00,VWS V14.01,2013-03-08 15:24:00,
2013-03-08 07:29:00,34.3,24.5,28.29,East,94,0.0,0.0,67,0.00,,---,0.00,VWS V14.01,2013-03-08 15:29:00,
2013-03-08 07:35:00,34.3,24.5,28.29,East,94,0.0,0.0,67,0.00,,---,0.00,VWS V14.01,2013-03-08 15:35:00,
2013-03-08 07:40:00,34.7,25.2,28.29,East,94,0.0,0.0,68,0.00,,---,0.00,VWS V14.01,2013-03-08 15:40:00,
2013-03-08 07:45:00,35.1,25.6,28.29,East,94,0.0,0.0,68,0.00,,---,0.00,VWS V14.01,2013-03-08 15:45:00,
2013-03-08 07:50:00,35.1,25.6,28.29,East,94,0.0,0.0,68,0.00,,---,0.00,VWS V14.01,2013-03-08 15:50:00,
2013-03-08 07:56:00,35.4,25.9,28.29,East,94,0.0,0.0,68,0.00,,---,0.00,VWS V14.01,2013-03-08 15:56:00,
2013-03-08 08:01:00,35.4,25.9,28.29,East,94,0.0,0.0,68,0.00,,---,0.00,VWS V14.01,2013-03-08 16:01:00,
2013-03-08 08:06:00,35.4,25.9,28.29,East,94,0.0,0.0,68,0.00,,---,0.00,VWS V14.01,2013-03-08 16:06:00,
2013-03-08 08:11:00,36.3,27.1,28.29,East,94,0.0,0.0,69,0.00,,---,0.00,VWS V14.01,2013-03-08 16:11:00,
2013-03-08 08:17:00,37.0,27.8,28.29,East,94,0.0,0.0,69,0.00,,---,0.00,VWS V14.01,2013-03-08 16:17:00,
2013-03-08 08:22:00,37.6,28.4,28.29,East,94,0.0,0.0,69,0.00,,---,0.00,VWS V14.01,2013-03-08 16:22:00,
2013-03-08 08:27:00,37.6,28.4,28.29,East,94,0.0,0.0,69,0.00,,---,0.00,VWS V14.01,2013-03-08 16:27:00,
2013-03-08 08:33:00,37.6,28.4,28.29,East,94,0.0,0.0,69,0.00,,---,0.00,VWS V14.01,2013-03-08 16:33:00,
2013-03-08 08:38:00,38.3,27.2,28.29,East,94,0.0,0.0,64,0.00,,---,0.00,VWS V14.01,2013-03-08 16:38:00,
2013-03-08 08:43:00,38.5,25.8,28.29,NNE,32,0.0,0.0,60,0.00,,---,0.00,VWS V14.01,2013-03-08 16:43:00,
2013-03-08 08:48:00,38.8,24.1,28.29,NE,56,2.7,2.7,55,0.00,,---,0.00,VWS V14.01,2013-03-08 16:48:00,
2013-03-08 08:54:00,38.8,22.3,28.29,ENE,76,0.0,2.7,51,0.00,,---,0.00,VWS V14.01,2013-03-08 16:54:00,
2013-03-08 08:59:00,38.8,22.3,28.29,ENE,62,2.7,3.1,51,0.00,,---,0.00,VWS V14.01,2013-03-08 16:59:00,
2013-03-08 09:04:00,38.1,21.6,28.29,NE,36,2.2,2.2,51,0.00,,---,0.00,VWS V14.01,2013-03-08 17:04:00,
2013-03-08 09:09:00,38.1,21.6,28.29,NNE,17,0.0,3.6,51,0.00,,---,0.00,VWS V14.01,2013-03-08 17:09:00,
2013-03-08 09:15:00,38.5,22.9,28.29,NNE,12,2.2,2.2,53,0.00,,---,0.00,VWS V14.01,2013-03-08 17:15:00,
2013-03-08 09:20:00,38.5,22.4,28.29,NNE,28,0.0,2.2,52,0.00,,---,0.00,VWS V14.01,2013-03-08 17:20:00,
2013-03-08 09:25:00,38.5,22.4,28.29,NE,39,0.0,0.0,52,0.00,,---,0.00,VWS V14.01,2013-03-08 17:25:00,
2013-03-08 09:30:00,38.8,22.7,28.29,NE,48,2.2,2.2,52,0.00,,---,0.00,VWS V14.01,2013-03-08 17:30:00,
2013-03-08 09:36:00,39.2,22.6,28.29,ENE,69,0.0,2.7,51,0.00,,---,0.00,VWS V14.01,2013-03-08 17:36:00,
2013-03-08 09:41:00,39.6,22.9,28.29,North,353,4.0,4.0,51,0.00,,---,0.00,VWS V14.01,2013-03-08 17:41:00,
2013-03-08 09:46:00,40.3,22.7,28.29,North,357,3.6,3.6,49,0.00,,---,0.00,VWS V14.01,2013-03-08 17:46:00,
2013-03-08 09:51:00,40.3,21.2,28.29,NNW,345,2.2,2.2,46,0.00,,---,0.00,VWS V14.01,2013-03-08 17:51:00,
2013-03-08 09:57:00,40.5,21.3,28.29,North,0,3.1,3.1,46,0.00,,---,0.00,VWS V14.01,2013-03-08 17:57:00,
2013-03-08 10:02:00,41.2,21.5,28.29,ENE,78,3.6,3.6,45,0.00,,---,0.00,VWS V14.01,2013-03-08 18:02:00,
2013-03-08 10:07:00,42.1,23.3,28.29,North,0,3.1,3.1,47,0.00,,---,0.00,VWS V14.01,2013-03-08 18:07:00,
2013-03-08 10:12:00,42.1,20.1,28.29,North,353,3.1,3.1,41,0.00,,---,0.00,VWS V14.01,2013-03-08 18:12:00,
2013-03-08 10:18:00,41.9,19.4,28.32,SE,144,3.1,3.1,40,0.00,,---,0.00,VWS V14.01,2013-03-08 18:18:00,
2013-03-08 10:23:00,41.9,19.9,28.32,SSE,165,0.0,3.1,41,0.00,,---,0.00,VWS V14.01,2013-03-08 18:23:00,
2013-03-08 10:28:00,44.1,23.0,28.32,SSE,165,0.0,0.0,43,0.00,,---,0.00,VWS V14.01,2013-03-08 18:28:00,
2013-03-08 10:33:00,44.6,22.9,28.32,SSE,164,2.2,3.1,42,0.00,,---,0.00,VWS V14.01,2013-03-08 18:33:00,
2013-03-08 10:39:00,45.1,20.4,28.32,SW,221,0.0,2.2,37,0.00,,---,0.00,VWS V14.01,2013-03-08 18:39:00,
2013-03-08 10:44:00,45.5,21.4,28.32,SSW,208,0.0,0.0,38,0.00,,---,0.00,VWS V14.01,2013-03-08 18:44:00,
2013-03-08 10:49:00,45.9,21.7,28.32,SW,222,2.7,2.7,38,0.00,,---,0.00,VWS V14.01,2013-03-08 18:49:00,
2013-03-08 10:54:00,47.7,20.7,28.32,SSW,204,5.8,5.8,34,0.00,,---,0.00,VWS V14.01,2013-03-08 18:54:00,
2013-03-08 11:00:00,48.0,20.3,28.32,South,169,0.0,5.8,33,0.00,,---,0.00,VWS V14.01,2013-03-08 19:00:00,
2013-03-08 11:05:00,47.8,18.7,28.32,South,176,3.1,3.1,31,0.00,,---,0.00,VWS V14.01,2013-03-08 19:05:00,
2013-03-08 11:10:00,47.7,18.5,28.32,SW,218,0.0,0.0,31,0.00,,---,0.00,VWS V14.01,2013-03-08 19:10:00,
2013-03-08 11:15:00,47.3,18.2,28.32,SW,219,0.0,0.0,31,0.00,,---,0.00,VWS V14.01,2013-03-08 19:15:00,
2013-03-08 11:21:00,46.9,20.0,28.32,SE,143,2.2,2.2,34,0.00,,---,0.00,VWS V14.01,2013-03-08 19:21:00,
2013-03-08 11:26:00,47.7,21.4,28.32,SE,143,2.2,2.2,35,0.00,,---,0.00,VWS V14.01,2013-03-08 19:26:00,
2013-03-08 11:31:00,48.2,20.5,28.32,SW,214,2.7,2.7,33,0.00,,---,0.00,VWS V14.01,2013-03-08 19:31:00,
2013-03-08 11:36:00,48.9,19.6,28.32,South,182,2.2,2.2,31,0.00,,---,0.00,VWS V14.01,2013-03-08 19:36:00,
2013-03-08 11:42:00,48.9,19.6,28.32,WSW,247,0.0,2.2,31,0.00,,---,0.00,VWS V14.01,2013-03-08 19:42:00,
2013-03-08 11:47:00,48.4,16.8,28.32,West,278,2.2,2.2,28,0.00,,---,0.00,VWS V14.01,2013-03-08 19:47:00,
2013-03-08 11:52:00,48.2,16.6,28.32,WNW,294,0.0,0.0,28,0.00,,---,0.00,VWS V14.01,2013-03-08 19:52:00,
2013-03-08 11:58:00,48.0,17.3,28.32,SSE,167,3.6,3.6,29,0.00,,---,0.00,VWS V14.01,2013-03-08 19:58:00,
2013-03-08 12:03:00,48.0,17.3,28.32,WNW,290,0.0,3.1,29,0.00,,---,0.00,VWS V14.01,2013-03-08 20:03:00,
2013-03-08 12:08:00,49.3,17.6,28.32,NW,316,2.7,2.7,28,0.00,,---,0.00,VWS V14.01,2013-03-08 20:08:00,
2013-03-08 12:13:00,49.3,17.6,28.32,WNW,295,2.2,2.2,28,0.00,,---,0.00,VWS V14.01,2013-03-08 20:13:00,
2013-03-08 12:19:00,49.3,17.6,28.32,West,271,0.0,2.2,28,0.00,,---,0.00,VWS V14.01,2013-03-08 20:19:00,
2013-03-08 12:24:00,51.4,18.6,28.32,SSE,148,2.2,2.2,27,0.00,,---,0.00,VWS V14.01,2013-03-08 20:24:00,
2013-03-08 12:29:00,51.4,17.7,28.32,NNW,339,0.0,2.7,26,0.00,,---,0.00,VWS V14.01,2013-03-08 20:29:00,
2013-03-08 12:34:00,52.3,18.5,28.32,NNW,339,0.0,0.0,26,0.00,,---,0.00,VWS V14.01,2013-03-08 20:34:00,
2013-03-08 12:40:00,52.7,18.8,28.32,SE,138,2.2,4.0,26,0.00,,---,0.00,VWS V14.01,2013-03-08 20:40:00,
2013-03-08 12:45:00,51.6,16.0,28.32,WNW,297,2.7,4.0,24,0.00,,---,0.00,VWS V14.01,2013-03-08 20:45:00,
2013-03-08 12:50:00,51.4,18.6,28.32,South,186,4.0,4.0,27,0.00,,---,0.00,VWS V14.01,2013-03-08 20:50:00,
2013-03-08 12:55:00,51.4,18.6,28.32,WNW,299,2.7,4.0,27,0.00,,---,0.00,VWS V14.01,2013-03-08 20:55:00,
2013-03-08 13:00:00,53.2,16.4,28.29,NNW,342,3.6,3.6,23,0.00,,---,0.00,VWS V14.01,2013-03-08 21:00:00,
2013-03-08 13:05:00,53.1,14.2,28.29,NE,48,2.2,2.2,21,0.00,,---,0.00,VWS V14.01,2013-03-08 21:05:00,
2013-03-08 13:10:00,54.1,17.2,28.29,WSW,238,0.0,0.0,23,0.00,,---,0.00,VWS V14.01,2013-03-08 21:10:00,
2013-03-08 13:15:00,54.7,17.6,28.29,North,353,3.6,5.4,23,0.00,,---,0.00,VWS V14.01,2013-03-08 21:15:00,
2013-03-08 13:21:00,54.7,17.6,28.29,North,7,2.2,2.2,23,0.00,,---,0.00,VWS V14.01,2013-03-08 21:21:00,
2013-03-08 13:26:00,54.5,17.5,28.29,North,5,4.0,4.0,23,0.00,,---,0.00,VWS V14.01,2013-03-08 21:26:00,
2013-03-08 13:31:00,54.9,14.6,28.29,NNW,331,5.4,5.4,20,0.00,,---,0.00,VWS V14.01,2013-03-08 21:31:00,
2013-03-08 13:37:00,54.9,14.6,28.29,WNW,295,0.0,3.1,20,0.00,,---,0.00,VWS V14.01,2013-03-08 21:37:00,
2013-03-08 13:42:00,55.0,12.3,28.29,NW,324,4.0,4.0,18,0.00,,---,0.00,VWS V14.01,2013-03-08 21:42:00,
2013-03-08 13:47:00,54.5,14.3,28.29,NNW,344,5.8,5.8,20,0.00,,---,0.00,VWS V14.01,2013-03-08 21:47:00,
2013-03-08 13:52:00,54.5,14.3,28.29,WNW,294,3.1,5.8,20,0.00,,---,0.00,VWS V14.01,2013-03-08 21:52:00,
2013-03-08 13:58:00,53.2,14.3,28.29,North,0,5.8,5.8,21,0.00,,---,0.00,VWS V14.01,2013-03-08 21:58:00,
2013-03-08 14:03:00,53.2,14.3,28.29,North,1,4.0,4.9,21,0.00,,---,0.00,VWS V14.01,2013-03-08 22:03:00,
2013-03-08 14:08:00,51.4,15.9,28.29,NW,305,0.0,3.6,24,0.00,,---,0.00,VWS V14.01,2013-03-08 22:08:00,
2013-03-08 14:14:00,51.8,18.0,28.29,SSW,211,2.7,3.6,26,0.00,,---,0.00,VWS V14.01,2013-03-08 22:14:00,
2013-03-08 14:19:00,52.0,15.4,28.29,South,173,3.1,4.0,23,0.00,,---,0.00,VWS V14.01,2013-03-08 22:19:00,
2013-03-08 14:24:00,51.4,15.9,28.29,South,179,0.0,3.1,24,0.00,,---,0.00,VWS V14.01,2013-03-08 22:24:00,
2013-03-08 14:29:00,50.4,16.8,28.29,NW,322,0.0,0.0,26,0.00,,---,0.00,VWS V14.01,2013-03-08 22:29:00,
2013-03-08 14:35:00,49.8,17.2,28.29,ENE,62,0.0,0.0,27,0.00,,---,0.00,VWS V14.01,2013-03-08 22:35:00,
2013-03-08 14:40:00,49.8,17.2,28.29,SSW,202,0.0,2.7,27,0.00,,---,0.00,VWS V14.01,2013-03-08 22:40:00,
2013-03-08 14:45:00,49.8,17.2,28.32,SSW,202,0.0,0.0,27,0.00,,---,0.00,VWS V14.01,2013-03-08 22:45:00,
2013-03-08 14:50:00,48.4,16.8,28.32,SSW,202,0.0,0.0,28,0.00,,---,0.00,VWS V14.01,2013-03-08 22:50:00,
2013-03-08 14:55:00,48.4,16.8,28.32,SSW,202,0.0,0.0,28,0.00,,---,0.00,VWS V14.01,2013-03-08 22:55:00,
2013-03-08 15:00:00,48.2,17.5,28.32,SSW,202,0.0,0.0,29,0.00,,---,0.00,VWS V14.01,2013-03-08 23:00:00,
2013-03-08 15:05:00,48.2,17.5,28.32,SSW,202,0.0,0.0,29,0.00,,---,0.00,VWS V14.01,2013-03-08 23:05:00,
2013-03-08 15:11:00,48.2,17.5,28.32,SSW,205,3.1,3.1,29,0.00,,---,0.00,VWS V14.01,2013-03-08 23:11:00,
2013-03-08 15:16:00,48.4,16.8,28.32,SSW,205,3.1,3.1,28,0.00,,---,0.00,VWS V14.01,2013-03-08 23:16:00,
2013-03-08 15:21:00,48.7,17.1,28.32,SSW,201,4.0,4.0,28,0.00,,---,0.00,VWS V14.01,2013-03-08 23:21:00,
2013-03-08 15:26:00,48.7,17.1,28.32,South,172,3.6,3.6,28,0.00,,---,0.00,VWS V14.01,2013-03-08 23:26:00,
2013-03-08 15:32:00,48.7,17.1,28.32,South,172,3.6,3.6,28,0.00,,---,0.00,VWS V14.01,2013-03-08 23:32:00,
2013-03-08 15:37:00,48.7,17.1,28.32,SE,130,2.7,2.7,28,0.00,,---,0.00,VWS V14.01,2013-03-08 23:37:00,
2013-03-08 15:42:00,48.2,17.5,28.32,SE,130,2.7,2.7,29,0.00,,---,0.00,VWS V14.01,2013-03-08 23:42:00,
2013-03-08 15:47:00,48.2,17.5,28.32,SSW,194,2.7,2.7,29,0.00,,---,0.00,VWS V14.01,2013-03-08 23:47:00,
2013-03-08 15:52:00,48.2,17.5,28.32,SSE,161,0.0,2.2,29,0.00,,---,0.00,VWS V14.01,2013-03-08 23:52:00,
2013-03-08 15:58:00,48.2,17.5,28.29,SSE,161,0.0,0.0,29,0.00,,---,0.00,VWS V14.01,2013-03-08 23:58:00,
2013-03-08 16:03:00,48.2,17.5,28.29,ESE,115,3.6,3.6,29,0.00,,---,0.00,VWS V14.01,2013-03-09 00:03:00,
2013-03-08 16:08:00,48.6,17.0,28.32,ESE,115,3.6,3.6,28,0.00,,---,0.00,VWS V14.01,2013-03-09 00:08:00,
2013-03-08 16:14:00,48.6,17.0,28.32,ESE,115,3.6,3.6,28,0.00,,---,0.00,VWS V14.01,2013-03-09 00:14:00,
2013-03-08 16:19:00,48.6,17.8,28.32,SE,142,0.0,3.6,29,0.00,,---,0.00,VWS V14.01,2013-03-09 00:19:00,
2013-03-08 16:24:00,48.2,16.6,28.32,SE,142,0.0,0.0,28,0.00,,---,0.00,VWS V14.01,2013-03-09 00:24:00,
2013-03-08 16:29:00,48.0,16.5,28.32,NW,321,2.2,2.7,28,0.00,,---,0.00,VWS V14.01,2013-03-09 00:29:00,
2013-03-08 16:35:00,48.0,16.5,28.32,North,357,3.6,3.6,28,0.00,,---,0.00,VWS V14.01,2013-03-09 00:35:00,
2013-03-08 16:40:00,47.8,16.3,28.32,North,357,2.2,2.2,28,0.00,,---,0.00,VWS V14.01,2013-03-09 00:40:00,
2013-03-08 16:45:00,47.8,16.3,28.32,North,9,0.0,2.2,28,0.00,,---,0.00,VWS V14.01,2013-03-09 00:45:00,
2013-03-08 16:50:00,47.5,15.2,28.32,NNE,12,3.1,3.1,27,0.00,,---,0.00,VWS V14.01,2013-03-09 00:50:00,
2013-03-08 16:56:00,47.7,16.2,28.32,NW,325,0.0,2.7,28,0.00,,---,0.00,VWS V14.01,2013-03-09 00:56:00,
2013-03-08 17:01:00,47.5,15.2,28.32,NNW,335,3.6,3.6,27,0.00,,---,0.00,VWS V14.01,2013-03-09 01:01:00,
2013-03-08 17:06:00,47.5,15.2,28.32,NW,318,3.6,3.6,27,0.00,,---,0.00,VWS V14.01,2013-03-09 01:06:00,
2013-03-08 17:11:00,47.5,15.2,28.32,NNW,330,3.6,3.6,27,0.00,,---,0.00,VWS V14.01,2013-03-09 01:11:00,
2013-03-08 17:17:00,47.3,15.9,28.32,North,0,2.7,3.6,28,0.00,,---,0.00,VWS V14.01,2013-03-09 01:17:00,
2013-03-08 17:22:00,47.3,15.9,28.32,NNW,343,4.0,4.0,28,0.00,,---,0.00,VWS V14.01,2013-03-09 01:22:00,
2013-03-08 17:27:00,47.3,15.9,28.32,North,0,4.0,4.0,28,0.00,,---,0.00,VWS V14.01,2013-03-09 01:27:00,
2013-03-08 17:32:00,46.6,14.4,28.35,North,0,4.0,4.0,27,0.00,,---,0.00,VWS V14.01,2013-03-09 01:32:00,
2013-03-08 17:38:00,45.7,14.5,28.35,North,0,3.1,4.0,28,0.00,,---,0.00,VWS V14.01,2013-03-09 01:38:00,
2013-03-08 17:43:00,45.3,14.1,28.35,North,1,0.0,3.1,28,0.00,,---,0.00,VWS V14.01,2013-03-09 01:43:00,
2013-03-08 17:48:00,45.3,14.1,28.35,ENE,61,0.0,0.0,28,0.00,,---,0.00,VWS V14.01,2013-03-09 01:48:00,
2013-03-08 17:53:00,45.3,14.1,28.35,ENE,61,0.0,0.0,28,0.00,,---,0.00,VWS V14.01,2013-03-09 01:53:00,
2013-03-08 17:59:00,44.1,13.1,28.35,ENE,61,0.0,0.0,28,0.00,,---,0.00,VWS V14.01,2013-03-09 01:59:00,
2013-03-08 18:04:00,43.3,12.4,28.35,ENE,61,0.0,0.0,28,0.00,,---,0.00,VWS V14.01,2013-03-09 02:04:00,
2013-03-08 18:09:00,42.8,12.8,28.35,ENE,61,0.0,0.0,29,0.00,,---,0.00,VWS V14.01,2013-03-09 02:09:00,
2013-03-08 18:14:00,42.1,12.9,28.35,ENE,61,0.0,0.0,30,0.00,,---,0.00,VWS V14.01,2013-03-09 02:14:00,
2013-03-08 18:20:00,42.1,12.9,28.35,NNW,333,0.0,0.0,30,0.00,,---,0.00,VWS V14.01,2013-03-09 02:20:00,
2013-03-08 18:25:00,41.9,14.2,28.38,NNW,333,0.0,0.0,32,0.00,,---,0.00,VWS V14.01,2013-03-09 02:25:00,
2013-03-08 18:30:00,41.0,16.1,28.38,SSE,158,2.7,2.7,36,0.00,,---,0.00,VWS V14.01,2013-03-09 02:30:00,
2013-03-08 18:35:00,40.8,17.2,28.38,South,171,2.7,2.7,38,0.00,,---,0.00,VWS V14.01,2013-03-09 02:35:00,
2013-03-08 18:41:00,40.6,17.6,28.38,SSW,199,3.6,3.6,39,0.00,,---,0.00,VWS V14.01,2013-03-09 02:41:00,
2013-03-08 18:46:00,40.6,17.6,28.38,SSW,199,2.7,2.7,39,0.00,,---,0.00,VWS V14.01,2013-03-09 02:46:00,
2013-03-08 18:51:00,39.9,17.0,28.38,SSW,199,2.2,2.2,39,0.00,,---,0.00,VWS V14.01,2013-03-09 02:51:00,
2013-03-08 18:56:00,39.9,17.0,28.38,SSW,199,2.2,2.7,39,0.00,,---,0.00,VWS V14.01,2013-03-09 02:56:00,
2013-03-08 19:02:00,39.7,16.8,28.38,SSW,199,0.0,2.2,39,0.00,,---,0.00,VWS V14.01,2013-03-09 03:02:00,
2013-03-08 19:07:00,39.7,17.4,28.38,SSW,199,0.0,0.0,40,0.00,,---,0.00,VWS V14.01,2013-03-09 03:07:00,
2013-03-08 19:12:00,39.6,17.2,28.38,SSW,199,0.0,0.0,40,0.00,,---,0.00,VWS V14.01,2013-03-09 03:12:00,
2013-03-08 19:18:00,39.6,17.2,28.38,SSW,199,0.0,0.0,40,0.00,,---,0.00,VWS V14.01,2013-03-09 03:18:00,
2013-03-08 19:23:00,39.2,16.9,28.38,SSW,199,0.0,0.0,40,0.00,,---,0.00,VWS V14.01,2013-03-09 03:23:00,
2013-03-08 19:28:00,38.8,17.2,28.38,SSW,199,0.0,0.0,41,0.00,,---,0.00,VWS V14.01,2013-03-09 03:28:00,
2013-03-08 19:33:00,38.8,17.2,28.38,SSW,199,0.0,0.0,41,0.00,,---,0.00,VWS V14.01,2013-03-09 03:33:00,
2013-03-08 19:39:00,39.7,17.4,28.38,SSW,199,0.0,0.0,40,0.00,,---,0.00,VWS V14.01,2013-03-09 03:39:00,
2013-03-08 19:44:00,39.9,17.6,28.41,SSW,199,0.0,0.0,40,0.00,,---,0.00,VWS V14.01,2013-03-09 03:44:00,
2013-03-08 19:49:00,39.4,16.5,28.41,SSW,199,0.0,0.0,39,0.00,,---,0.00,VWS V14.01,2013-03-09 03:49:00,
2013-03-08 19:54:00,39.4,16.5,28.41,SSE,168,0.0,0.0,39,0.00,,---,0.00,VWS V14.01,2013-03-09 03:54:00,
2013-03-08 20:00:00,39.2,16.9,28.41,SSE,168,0.0,0.0,40,0.00,,---,0.00,VWS V14.01,2013-03-09 04:00:00,
2013-03-08 20:05:00,39.2,16.9,28.41,SSE,168,0.0,0.0,40,0.00,,---,0.00,VWS V14.01,2013-03-09 04:05:00,
2013-03-08 20:10:00,39.0,17.3,28.41,SSE,168,0.0,0.0,41,0.00,,---,0.00,VWS V14.01,2013-03-09 04:10:00,
2013-03-08 20:15:00,39.0,17.3,28.41,SSE,168,0.0,0.0,41,0.00,,---,0.00,VWS V14.01,2013-03-09 04:15:00,
2013-03-08 20:21:00,38.8,17.2,28.41,SSE,168,0.0,0.0,41,0.00,,---,0.00,VWS V14.01,2013-03-09 04:21:00,
2013-03-08 20:26:00,38.7,17.0,28.41,SSE,168,0.0,0.0,41,0.00,,---,0.00,VWS V14.01,2013-03-09 04:26:00,
2013-03-08 20:31:00,38.7,17.6,28.41,SSE,168,0.0,0.0,42,0.00,,---,0.00,VWS V14.01,2013-03-09 04:31:00,
2013-03-08 20:36:00,38.7,17.6,28.41,SSE,168,0.0,0.0,42,0.00,,---,0.00,VWS V14.01,2013-03-09 04:36:00,
2013-03-08 20:41:00,39.4,18.2,28.41,SSE,168,0.0,0.0,42,0.00,,---,0.00,VWS V14.01,2013-03-09 04:41:00,
2013-03-08 20:47:00,39.7,18.0,28.41,SSE,168,0.0,0.0,41,0.00,,---,0.00,VWS V14.01,2013-03-09 04:47:00,
2013-03-08 20:52:00,39.7,18.0,28.41,SSE,168,0.0,0.0,41,0.00,,---,0.00,VWS V14.01,2013-03-09 04:52:00,
2013-03-08 20:57:00,39.9,17.6,28.41,SSE,168,0.0,0.0,40,0.00,,---,0.00,VWS V14.01,2013-03-09 04:57:00,
2013-03-08 21:00:00,39.9,17.6,28.41,SSE,168,0.0,0.0,40,0.00,,---,0.00,VWS V14.01,2013-03-09 05:00:00,
2013-03-08 21:01:00,39.9,17.6,28.41,SSE,168,2.2,2.2,40,0.00,,---,0.00,VWS V14.01,2013-03-09 05:01:00,
2013-03-08 21:03:00,39.9,17.6,28.41,South,170,0.0,2.2,40,0.00,,---,0.00,VWS V14.01,2013-03-09 05:03:00,
2013-03-08 21:09:00,39.7,18.0,28.41,South,170,0.0,0.0,41,0.00,,---,0.00,VWS V14.01,2013-03-09 05:09:00,
2013-03-08 21:14:00,39.7,18.0,28.41,South,170,0.0,0.0,41,0.00,,---,0.00,VWS V14.01,2013-03-09 05:14:00,
2013-03-08 21:19:00,39.7,18.0,28.41,South,170,0.0,0.0,41,0.00,,---,0.00,VWS V14.01,2013-03-09 05:19:00,
2013-03-08 21:24:00,39.6,17.8,28.41,South,170,0.0,0.0,41,0.00,,---,0.00,VWS V14.01,2013-03-09 05:24:00,
2013-03-08 21:30:00,39.6,17.8,28.41,South,170,0.0,0.0,41,0.00,,---,0.00,VWS V14.01,2013-03-09 05:30:00,
2013-03-08 21:35:00,38.5,18.5,28.44,SE,139,0.0,0.0,44,0.00,,---,0.00,VWS V14.01,2013-03-09 05:35:00,
2013-03-08 21:40:00,38.5,18.5,28.44,East,100,3.6,3.6,44,0.00,,---,0.00,VWS V14.01,2013-03-09 05:40:00,
2013-03-08 21:46:00,38.5,18.5,28.44,ENE,76,0.0,0.0,44,0.00,,---,0.00,VWS V14.01,2013-03-09 05:46:00,
2013-03-08 21:51:00,39.4,19.8,28.44,ENE,76,0.0,0.0,45,0.00,,---,0.00,VWS V14.01,2013-03-09 05:51:00,
2013-03-08 21:56:00,39.2,19.1,28.44,ENE,76,0.0,0.0,44,0.00,,---,0.00,VWS V14.01,2013-03-09 05:56:00,
2013-03-08 22:01:00,38.7,18.6,28.44,SE,132,2.7,2.7,44,0.00,,---,0.00,VWS V14.01,2013-03-09 06:01:00,
2013-03-08 22:07:00,38.7,18.6,28.44,East,95,2.7,2.7,44,0.00,,---,0.00,VWS V14.01,2013-03-09 06:07:00,
2013-03-08 22:12:00,38.7,18.6,28.44,North,0,2.2,2.2,44,0.00,,---,0.00,VWS V14.01,2013-03-09 06:12:00,
2013-03-08 22:17:00,38.8,20.4,28.44,ESE,103,0.0,2.2,47,0.00,,---,0.00,VWS V14.01,2013-03-09 06:17:00,
2013-03-08 22:22:00,39.2,18.6,28.44,East,91,0.0,0.0,43,0.00,,---,0.00,VWS V14.01,2013-03-09 06:22:00,
2013-03-08 22:28:00,39.2,18.6,28.44,SE,133,4.0,4.0,43,0.00,,---,0.00,VWS V14.01,2013-03-09 06:28:00,
2013-03-08 22:33:00,39.2,18.6,28.44,NE,39,2.2,3.6,43,0.00,,---,0.00,VWS V14.01,2013-03-09 06:33:00,
2013-03-08 22:38:00,39.2,18.6,28.44,East,85,0.0,4.0,43,0.00,,---,0.00,VWS V14.01,2013-03-09 06:38:00,
2013-03-08 22:43:00,39.2,18.6,28.44,East,85,0.0,0.0,43,0.00,,---,0.00,VWS V14.01,2013-03-09 06:43:00,
2013-03-08 22:49:00,39.0,18.4,28.44,East,86,0.0,0.0,43,0.00,,---,0.00,VWS V14.01,2013-03-09 06:49:00,
2013-03-08 22:54:00,38.8,18.3,28.44,NE,46,0.0,0.0,43,0.00,,---,0.00,VWS V14.01,2013-03-09 06:54:00,
2013-03-08 22:59:00,38.7,18.6,28.44,ESE,120,3.1,3.1,44,0.00,,---,0.00,VWS V14.01,2013-03-09 06:59:00,
2013-03-08 23:04:00,38.3,18.3,28.44,SE,144,4.0,4.0,44,0.00,,---,0.00,VWS V14.01,2013-03-09 07:04:00,
2013-03-08 23:10:00,38.5,19.0,28.44,ESE,120,3.1,4.0,45,0.00,,---,0.00,VWS V14.01,2013-03-09 07:10:00,
2013-03-08 23:15:00,38.5,19.0,28.44,ESE,120,0.0,0.0,45,0.00,,---,0.00,VWS V14.01,2013-03-09 07:15:00,
2013-03-08 23:20:00,38.7,18.6,28.44,ENE,65,0.0,0.0,44,0.00,,---,0.00,VWS V14.01,2013-03-09 07:20:00,
2013-03-08 23:26:00,38.1,18.1,28.44,ENE,65,0.0,0.0,44,0.00,,---,0.00,VWS V14.01,2013-03-09 07:26:00,
2013-03-08 23:31:00,37.4,19.5,28.47,ENE,65,0.0,0.0,48,0.00,,---,0.00,VWS V14.01,2013-03-09 07:31:00,
2013-03-08 23:36:00,37.4,19.5,28.47,ENE,65,0.0,0.0,48,0.00,,---,0.00,VWS V14.01,2013-03-09 07:36:00,
2013-03-08 23:41:00,36.9,20.4,28.47,North,350,0.0,0.0,51,0.00,,---,0.00,VWS V14.01,2013-03-09 07:41:00,
2013-03-08 23:47:00,36.9,20.4,28.47,North,350,0.0,0.0,51,0.00,,---,0.00,VWS V14.01,2013-03-09 07:47:00,
2013-03-08 23:52:00,36.7,21.2,28.47,North,350,0.0,0.0,53,0.00,,---,0.00,VWS V14.01,2013-03-09 07:52:00,
2013-03-08 23:57:00,36.3,20.8,28.47,North,350,0.0,0.0,53,0.00,,---,0.00,VWS V14.01,2013-03-09 07:57:00,